Flight Track Log - Related Links

Times and Time Zones

All times are in EDT time to prevent confusion due to time zone crossing. See the EJM19 flight status page for this flight to view local times or setup timezone preferences in your user account.

Time Position Orientation Groundspeed Altitude Reporting Facility
EDT Latitude Longitude Course Direction KTS MPH feet Rate Location/Type
Mon 10:24:29 AM 41.3517 -70.7367 294° West 225 259 9,700  Level Boston Center
Mon 10:25:41 AM 41.4314 -70.7706 342° North 253 291 10,500 2,318 Climbing Boston Center
Mon 10:26:41 AM 41.4894 -70.8828 305° West 293 337 14,800 2,750 Climbing Boston Center
Mon 10:27:41 AM 41.5303 -70.9786 300° West 324 373 16,000 600 Climbing Boston Center
Mon 10:28:00 AM 41.6564 -71.2577 298° West  Level FlightAware Approximate
Mon 10:28:41 AM 41.5858 -71.1050 300° West 354 407 16,000  Level Boston Center
Mon 10:29:41 AM 41.6308 -71.2069 301° West 360 414 16,000  Level Boston Center
Mon 10:30:41 AM 41.6842 -71.3339 299° West 360 414 16,000  Level Boston Center
Mon 10:31:41 AM 41.7311 -71.4358 302° West 360 414 16,000  Level Boston Center
Mon 10:32:41 AM 41.7989 -71.5600 306° West 371 427 16,000  Level Boston Center
Mon 10:33:41 AM 41.8600 -71.6708 307° West 377 434 16,000  Level Boston Center
Mon 10:34:41 AM 41.9211 -71.7789 307° West 377 434 16,000  Level Boston Center
Mon 10:35:41 AM 41.9697 -71.8956 299° West 377 434 16,000  Level Boston Center
Mon 10:36:42 AM 41.9975 -72.0211 287° West 358 412 16,000  Level Boston Center
Mon 10:37:41 AM 42.0247 -72.1356 288° West 351 404 16,000  Level Boston Center
Mon 10:38:41 AM 42.0586 -72.2750 288° West 357 411 16,000  Level Boston Center
Mon 10:39:41 AM 42.0856 -72.3869 288° West 357 411 16,000  Level Boston Center
Mon 10:40:41 AM 42.1189 -72.5242 288° West 357 411 16,000  Level Boston Center
Mon 10:41:41 AM 42.1439 -72.6361 287° West 357 411 16,000  Level Boston Center
Mon 10:42:41 AM 42.1581 -72.7650 278° West 357 411 16,000  Level Boston Center
Mon 10:43:42 AM 42.1494 -72.9050 265° West 346 398 16,000  Level Boston Center
Mon 10:44:41 AM 42.1425 -73.0225 265° West 351 404 16,000 -454 Level Boston Center
Mon 10:45:41 AM 42.1333 -73.1681 265° West 351 404 15,100 -1,000 Descending Boston Center
Mon 10:46:41 AM 42.1264 -73.2742 265° West 332 382 14,000 -455 Descending Boston Center
Mon 10:47:53 AM 42.1150 -73.4028 263° West 337 388 14,100 42 Climbing Boston Center
Mon 10:49:05 AM 42.1053 -73.5539 265° West 337 388 14,100  Level Boston Center
Mon 10:50:17 AM 42.0911 -73.7186 263° West 343 395 14,100  Level Boston Center
Mon 10:51:17 AM 42.0811 -73.8583 265° West 333 383 14,100  Level Boston Center
Mon 10:52:17 AM 42.0708 -73.9950 264° West 333 383 14,100  Level Boston Center
Mon 10:53:17 AM 42.0653 -74.0900 266° West 339 390 14,100 -1,050 Level Boston Center
Mon 10:54:17 AM 42.0400 -74.2486 258° West 351 404 12,000 -1,950 Descending Boston Center
Mon 10:55:17 AM 41.9967 -74.3425 238° Southwest 336 387 10,200 -950 Descending Boston Center
Mon 10:56:17 AM 41.9122 -74.4181 214° Southwest 329 379 10,100 -50 Descending Boston Center
Mon 10:57:17 AM 41.8361 -74.4742 209° Southwest 347 399 10,100 -400 Level Boston Center
Mon 10:58:17 AM 41.7539 -74.5272 206° Southwest 322 371 9,300 -1,100 Descending Boston Center
Mon 10:59:17 AM 41.6806 -74.5414 188° South 299 344 7,900 -1,500 Descending Boston Center
Mon 11:00:17 AM 41.5928 -74.5581 188° South 294 338 6,300 -900 Descending Boston Center
Mon 11:01:17 AM 41.5258 -74.5697 187° South 294 338 6,100 -100 Descending Boston Center
Mon 11:02:17 AM 41.4442 -74.5864 189° South 274 315 6,100 -45 Level Boston Center
Mon 11:03:31 AM 41.3500 -74.6167 194° South 282 325 6,000 -134 Descending New York TRACON
Mon 11:04:31 AM 41.2667 -74.6333 189° South 284 327 5,800 -850 Descending New York TRACON
Mon 11:05:31 AM 41.2000 -74.6000 159° South 284 327 4,300 -900 Descending New York TRACON
Mon 11:06:31 AM 41.1333 -74.5500 151° Southeast 270 311 4,000 -350 Descending New York TRACON
Mon 11:07:31 AM 41.1167 -74.4500 102° East 294 338 3,600 -500 Descending New York TRACON
Mon 11:08:31 AM 41.1000 -74.3500 102° East 284 327 3,000 -300 Descending New York TRACON
Mon 11:09:31 AM 41.0667 -74.2500 114° Southeast 279 321 3,000 -450 Level New York TRACON
Mon 11:10:31 AM 41.0500 -74.1500 102° East 255 293 2,100 -500 Descending New York TRACON
Mon 11:11:31 AM 41.0167 -74.1000 131° Southeast 204 235 2,000 -50 Descending New York TRACON
Mon 11:12:31 AM 40.9667 -74.0500 143° Southeast 206 237 2,000 -316 Level New York TRACON
Mon 11:13:25 AM 40.9167 -74.0500 180° South 202 232 1,400 -632 Descending New York TRACON
Mon 11:14:25 AM 40.8833 -74.0333 159° South 148 170 800 -600 Descending New York TRACON

Login

Don't have an account? Register now (free) for customized features, flight alerts, and more!